Welcome to the New NWS' Forecast!
Most changes are behind the scenes, but click here for differences you might notice.

Terminal Aerodrome Forecast (TAF)

Issued by National Weather Service (NWS)

                            
352 
FTUS42 KKEY 140922 AAB
TAFMTH
TAF AMD
KMTH 140922Z 1409/1506 11006KT P6SM VCTS SCT030CB
      TEMPO 1409/1411 10015G25KT 2SM TSRA BKN025CB
     FM141800 12009KT P6SM FEW020=